Time;durP1;ratioP1;P1;durP2;ratioP2;P2;SDS_P1;SDS_P2;PMS_P1;PMS_P2;Temp;Humidity;BMP_temperature;BMP_pressure;BME280_temperature;BME280_humidity;BME280_pressure;Samples;Min_cycle;Max_cycle;Signal;HPM_P1;HPM_P2
2022/05/23 00:01:52;;;;;;;1.70;0.90;;;;;;;13.04;87.06;100874.91;5072658;28;20954;-70
2022/05/23 00:04:19;;;;;;;2.10;1.30;;;;;;;12.92;85.71;100871.13;5073110;28;20469;-72
2022/05/23 00:06:46;;;;;;;2.33;1.23;;;;;;;12.80;85.72;100869.78;5077092;28;20863;-72
2022/05/23 00:09:12;;;;;;;1.87;1.23;;;;;;;12.72;86.40;100881.41;5076601;28;20945;-72
2022/05/23 00:11:39;;;;;;;1.87;1.27;;;;;;;12.67;85.74;100872.56;5076772;28;20481;-71
2022/05/23 00:14:06;;;;;;;1.70;1.00;;;;;;;12.53;86.36;100876.13;5076491;28;20926;-71
2022/05/23 00:16:35;;;;;;;3.07;1.53;;;;;;;12.44;88.30;100871.72;5076738;28;20437;-72
2022/05/23 00:19:04;;;;;;;4.10;1.13;;;;;;;12.45;89.52;100868.72;5076755;28;20448;-72
2022/05/23 00:21:30;;;;;;;1.50;1.10;;;;;;;12.46;90.30;100872.22;5076596;28;20453;-72
2022/05/23 00:23:57;;;;;;;1.83;1.40;;;;;;;12.41;91.31;100870.44;5076568;28;20445;-71
2022/05/23 00:26:23;;;;;;;2.03;1.00;;;;;;;12.43;91.81;100870.13;5076282;28;20441;-72
2022/05/23 00:28:50;;;;;;;1.20;1.00;;;;;;;12.42;91.66;100865.78;5076531;28;20467;-71
2022/05/23 00:31:17;;;;;;;2.30;1.20;;;;;;;12.32;92.87;100869.56;5076437;28;20498;-72
2022/05/23 00:36:30;;;;;;;2.00;1.10;;;;;;;12.32;93.47;100851.34;5076355;28;20497;-73
2022/05/23 00:38:57;;;;;;;2.23;1.60;;;;;;;12.39;93.32;100856.34;5076374;28;20490;-71
2022/05/23 00:44:16;;;;;;;4.87;1.40;;;;;;;12.42;93.79;100854.94;5076011;28;20461;-71
2022/05/23 00:46:54;;;;;;;1.77;1.23;;;;;;;12.42;93.45;100853.00;5076202;28;20801;-70
2022/05/23 00:49:24;;;;;;;2.73;1.50;;;;;;;12.37;94.33;100843.06;5076191;28;20507;-70
2022/05/23 00:51:52;;;;;;;4.43;1.50;;;;;;;12.35;94.20;100842.59;5076008;28;20484;-70
2022/05/23 00:54:21;;;;;;;1.97;1.47;;;;;;;12.31;95.65;100833.44;5075744;28;21009;-71
2022/05/23 00:56:50;;;;;;;1.47;1.13;;;;;;;12.36;93.27;100849.63;5076039;28;20445;-70
2022/05/23 00:59:20;;;;;;;1.23;1.10;;;;;;;12.40;91.71;100840.88;5075892;28;20541;-71
2022/05/23 01:01:47;;;;;;;1.63;1.33;;;;;;;12.41;91.39;100835.13;5075950;28;20422;-70
2022/05/23 01:04:14;;;;;;;2.47;1.43;;;;;;;12.45;90.68;100832.59;5075735;28;20457;-71
2022/05/23 01:06:40;;;;;;;2.00;1.53;;;;;;;12.41;90.37;100826.16;5075833;28;20441;-70
2022/05/23 01:09:08;;;;;;;3.00;1.80;;;;;;;12.47;90.90;100809.41;5075755;28;20441;-70
2022/05/23 01:11:35;;;;;;;2.47;1.77;;;;;;;12.51;92.25;100807.69;5075682;28;20466;-70
2022/05/23 01:14:01;;;;;;;2.77;1.70;;;;;;;12.58;93.02;100812.72;5075678;28;20446;-72
2022/05/23 01:16:28;;;;;;;2.13;1.43;;;;;;;12.62;93.75;100811.78;5074616;28;20436;-71
2022/05/23 01:18:55;;;;;;;6.50;1.90;;;;;;;12.71;93.93;100806.41;5075641;28;20472;-70
2022/05/23 01:21:30;;;;;;;1.70;1.17;;;;;;;12.81;94.12;100803.44;5075452;28;20445;-71
2022/05/23 01:24:01;;;;;;;2.80;1.77;;;;;;;12.88;93.67;100811.97;5075466;28;20424;-70
2022/05/23 01:26:32;;;;;;;2.37;1.33;;;;;;;12.94;93.60;100809.09;5075195;28;20921;-71
2022/05/23 01:28:58;;;;;;;3.80;1.97;;;;;;;12.97;93.60;100805.75;5075417;28;20433;-70
2022/05/23 01:31:25;;;;;;;2.90;1.20;;;;;;;13.00;93.54;100800.50;5075295;28;20454;-70
2022/05/23 01:33:51;;;;;;;2.60;1.73;;;;;;;13.06;93.36;100804.69;5074979;28;20998;-70
2022/05/23 01:36:18;;;;;;;3.33;1.50;;;;;;;13.09;93.02;100798.63;5074771;28;20477;-70
2022/05/23 01:38:44;;;;;;;1.97;1.63;;;;;;;13.11;92.90;100798.31;5075064;28;20438;-70
2022/05/23 01:41:11;;;;;;;2.70;1.80;;;;;;;13.15;92.56;100793.88;5075173;28;20426;-70
2022/05/23 01:43:39;;;;;;;4.73;1.70;;;;;;;13.21;92.24;100802.69;5075236;28;20830;-70
2022/05/23 01:46:05;;;;;;;1.80;1.37;;;;;;;13.14;92.42;100795.75;5074961;28;20469;-70
2022/05/23 01:48:32;;;;;;;2.17;1.30;;;;;;;13.09;93.05;100789.66;5075040;28;20449;-71
2022/05/23 01:50:58;;;;;;;3.90;1.57;;;;;;;13.12;92.70;100791.75;5075099;28;20444;-70
2022/05/23 01:53:26;;;;;;;2.47;1.70;;;;;;;13.14;91.21;100797.69;5074586;28;20861;-70
2022/05/23 01:55:53;;;;;;;1.93;1.40;;;;;;;13.06;89.37;100791.09;5074468;28;20884;-68
2022/05/23 02:01:13;;;;;;;4.57;2.33;;;;;;;12.95;88.09;100800.63;5075162;28;20437;-71
2022/05/23 02:01:15;;;;;;;4.13;1.60;;;;;;;12.91;88.37;100796.13;5074571;28;20844;-70
2022/05/23 02:03:43;;;;;;;2.10;1.90;;;;;;;12.92;87.91;100792.28;5074850;28;20419;-71
2022/05/23 02:06:09;;;;;;;5.73;1.90;;;;;;;12.92;88.33;100792.28;5074721;28;20464;-70
2022/05/23 02:08:36;;;;;;;3.23;1.93;;;;;;;12.92;90.16;100784.94;5074402;28;20449;-71
2022/05/23 02:11:03;;;;;;;3.07;2.07;;;;;;;12.93;91.15;100783.84;5074576;28;20453;-70
2022/05/23 02:13:32;;;;;;;5.60;1.53;;;;;;;12.96;91.56;100782.41;5074150;28;20481;-70
2022/05/23 02:15:58;;;;;;;2.53;1.50;;;;;;;12.92;92.11;100773.25;5074641;28;20460;-69
2022/05/23 02:18:26;;;;;;;2.27;1.73;;;;;;;12.91;92.69;100774.38;5074465;28;20442;-70
2022/05/23 02:20:52;;;;;;;2.00;1.50;;;;;;;12.90;92.82;100775.50;5074312;28;20441;-70
2022/05/23 02:23:19;;;;;;;2.30;1.60;;;;;;;12.89;92.38;100782.84;5074184;28;20444;-72
2022/05/23 02:25:46;;;;;;;7.90;2.50;;;;;;;12.93;92.54;100783.84;5073911;28;20974;-69
2022/05/23 02:28:12;;;;;;;3.03;1.80;;;;;;;12.81;92.90;100768.09;5073832;28;20487;-71
2022/05/23 02:30:39;;;;;;;2.57;1.50;;;;;;;12.85;92.91;100771.78;5074192;28;20456;-72
2022/05/23 02:33:05;;;;;;;3.73;1.97;;;;;;;12.86;92.79;100775.31;5073715;28;21024;-71
2022/05/23 02:35:33;;;;;;;4.13;2.53;;;;;;;12.86;92.78;100761.72;5073693;28;20474;-71
2022/05/23 02:38:00;;;;;;;2.70;1.80;;;;;;;12.86;92.92;100761.72;5074090;28;20511;-70
2022/05/23 02:40:26;;;;;;;2.50;2.00;;;;;;;12.83;93.34;100763.13;5074029;28;20452;-70
2022/05/23 02:42:53;;;;;;;5.40;1.90;;;;;;;12.78;93.74;100767.91;5073943;28;20438;-70
2022/05/23 02:45:19;;;;;;;4.50;2.20;;;;;;;12.71;92.56;100768.38;5073615;28;20995;-70
2022/05/23 02:47:46;;;;;;;2.80;2.00;;;;;;;12.69;91.90;100777.94;5073946;28;20437;-71
2022/05/23 02:50:14;;;;;;;3.70;2.40;;;;;;;12.63;90.55;100778.06;5073408;28;20850;-70
2022/05/23 02:52:44;;;;;;;9.17;1.47;;;;;;;12.59;90.35;100787.13;5073451;28;21002;-70
2022/05/23 02:55:11;;;;;;;5.00;1.53;;;;;;;12.61;91.43;100784.91;5073673;28;20518;-72
2022/05/23 02:57:38;;;;;;;1.97;1.77;;;;;;;12.57;92.90;100783.91;5073616;28;20448;-71
2022/05/23 03:00:06;;;;;;;2.23;1.40;;;;;;;12.60;92.88;100781.38;5073642;28;20873;-70
2022/05/23 03:05:17;;;;;;;1.93;1.60;;;;;;;12.65;93.34;100769.59;5073419;28;20647;-72
2022/05/23 03:07:45;;;;;;;1.50;1.40;;;;;;;12.66;93.76;100773.94;5073538;28;20457;-71
2022/05/23 03:10:12;;;;;;;3.07;2.20;;;;;;;12.61;94.45;100777.56;5073558;28;20445;-70
2022/05/23 03:12:39;;;;;;;1.93;1.60;;;;;;;12.59;94.30;100781.72;5073462;28;20530;-70
2022/05/23 03:15:07;;;;;;;5.03;2.00;;;;;;;12.54;94.40;100777.19;5073362;28;20465;-70
2022/05/23 03:17:34;;;;;;;2.70;2.13;;;;;;;12.53;92.30;100766.66;5073467;28;20445;-70
2022/05/23 03:20:00;;;;;;;3.20;2.20;;;;;;;12.46;91.74;100763.56;5073354;28;20433;-69
2022/05/23 03:27:58;;;;;;;4.60;2.40;;;;;;;12.37;90.72;100774.34;5073182;28;20401;-70
2022/05/23 03:30:25;;;;;;;2.97;1.70;;;;;;;12.40;91.59;100770.22;5073322;28;20465;-70
2022/05/23 03:32:52;;;;;;;2.90;1.67;;;;;;;12.37;93.20;100758.84;5072819;28;20908;-70
2022/05/23 03:37:47;;;;;;;3.40;2.00;;;;;;;12.50;94.09;100761.81;5075213;22;20493;-71
2022/05/23 03:40:15;;;;;;;2.03;1.80;;;;;;;12.53;94.89;100762.00;5052515;28;20442;-71
2022/05/23 03:42:42;;;;;;;3.23;2.20;;;;;;;12.50;95.97;100753.69;5053040;28;20445;-71
2022/05/23 03:45:10;;;;;;;3.43;1.53;;;;;;;12.56;96.16;100757.84;5052721;28;20442;-71
2022/05/23 03:47:37;;;;;;;4.23;2.23;;;;;;;12.65;95.85;100758.72;5052924;28;20493;-73
2022/05/23 03:50:05;;;;;;;4.33;2.57;;;;;;;12.70;95.66;100764.00;5053011;28;20449;-72
2022/05/23 03:52:31;;;;;;;5.13;2.30;;;;;;;12.68;95.89;100763.53;5052614;28;20472;-72
2022/05/23 03:54:58;;;;;;;2.90;2.27;;;;;;;12.75;95.95;100755.75;5053001;28;20438;-72
2022/05/23 03:57:25;;;;;;;2.87;2.37;;;;;;;12.80;96.07;100757.53;5052854;28;20462;-72
2022/05/23 03:59:54;;;;;;;5.67;2.63;;;;;;;12.85;95.84;100760.91;5052912;28;20450;-71
2022/05/23 04:02:21;;;;;;;3.67;2.40;;;;;;;12.93;95.85;100753.13;5052887;28;20477;-70
2022/05/23 04:04:48;;;;;;;5.47;2.87;;;;;;;12.95;95.75;100759.03;5052911;28;20442;-70
2022/05/23 04:07:14;;;;;;;3.17;2.10;;;;;;;12.99;95.77;100758.09;5052742;28;20469;-70
2022/05/23 04:09:41;;;;;;;2.50;1.83;;;;;;;13.07;95.33;100765.50;5052543;28;20454;-75
2022/05/23 04:12:09;;;;;;;3.23;2.27;;;;;;;13.06;94.91;100765.84;5052453;28;20955;-70
2022/05/23 04:14:36;;;;;;;3.17;2.20;;;;;;;13.08;93.35;100774.47;5052610;28;20488;-69
2022/05/23 04:17:03;;;;;;;5.13;2.80;;;;;;;13.18;91.77;100773.38;5052352;28;20987;-69
2022/05/23 04:19:30;;;;;;;3.67;2.50;;;;;;;13.23;90.61;100765.91;5052723;28;20500;-70
2022/05/23 04:21:56;;;;;;;3.80;2.23;;;;;;;13.27;90.19;100774.25;5052725;28;20449;-69
2022/05/23 04:24:22;;;;;;;3.13;2.60;;;;;;;13.33;90.80;100771.09;5052718;28;20453;-70
2022/05/23 04:26:53;;;;;;;4.53;2.73;;;;;;;13.42;91.26;100768.41;5052551;28;20466;-69
2022/05/23 04:29:20;;;;;;;3.90;2.57;;;;;;;13.57;91.59;100767.16;5052667;28;20795;-70
2022/05/23 04:31:48;;;;;;;4.00;2.50;;;;;;;13.71;91.46;100769.75;5052573;28;20445;-69
2022/05/23 04:36:59;;;;;;;2.50;2.17;;;;;;;13.95;91.26;100774.75;5052318;28;20465;-69
2022/05/23 04:39:26;;;;;;;3.43;2.00;;;;;;;14.06;90.73;100762.41;5052532;28;20488;-70
2022/05/23 04:41:52;;;;;;;5.63;2.40;;;;;;;14.14;90.39;100772.50;5052475;28;20856;-70
2022/05/23 04:44:18;;;;;;;3.63;2.70;;;;;;;14.24;89.87;100769.47;5052487;28;20811;-69
2022/05/23 04:52:08;;;;;;;6.10;2.60;;;;;;;14.50;88.42;100760.50;5050549;28;20457;-69
2022/05/23 04:54:34;;;;;;;4.70;2.30;;;;;;;14.61;87.47;100762.56;5055879;28;20478;-69
2022/05/23 04:57:01;;;;;;;6.63;1.90;;;;;;;14.74;86.75;100762.69;5055801;28;20458;-69
2022/05/23 04:59:27;;;;;;;4.40;2.27;;;;;;;14.82;86.53;100749.03;5055535;28;20943;-70
2022/05/23 05:01:53;;;;;;;5.83;2.53;;;;;;;14.87;86.57;100751.63;5055848;28;20488;-73
2022/05/23 05:04:20;;;;;;;3.30;2.00;;;;;;;14.95;86.58;100743.72;5055824;28;20438;-72
2022/05/23 05:06:48;;;;;;;3.07;2.00;;;;;;;14.98;85.52;100746.59;5056028;28;20881;-72
2022/05/23 05:09:14;;;;;;;3.13;1.87;;;;;;;15.03;84.61;100745.59;5055694;28;20848;-72
2022/05/23 05:11:40;;;;;;;2.20;1.73;;;;;;;15.10;83.60;100743.19;5055675;28;20450;-72
2022/05/23 05:14:07;;;;;;;8.93;2.50;;;;;;;15.11;82.52;100737.38;5055549;28;20569;-71
2022/05/23 05:16:33;;;;;;;1.47;1.27;;;;;;;15.16;81.77;100736.41;5055289;28;20451;-73
2022/05/23 05:19:00;;;;;;;11.63;2.33;;;;;;;15.12;81.29;100736.25;5055558;28;20438;-73
2022/05/23 05:21:27;;;;;;;5.40;1.80;;;;;;;15.10;79.56;100729.53;5055491;28;20445;-74
2022/05/23 05:23:54;;;;;;;2.93;1.50;;;;;;;15.08;80.53;100731.78;5055451;28;20441;-72
2022/05/23 05:26:21;;;;;;;3.33;1.83;;;;;;;15.03;79.66;100732.75;5055323;28;20458;-73
2022/05/23 05:28:49;;;;;;;2.30;1.67;;;;;;;15.03;80.75;100726.50;5055279;28;20449;-72
2022/05/23 05:31:23;;;;;;;1.80;1.40;;;;;;;15.07;81.02;100735.66;5055310;28;20504;-72
2022/05/23 05:33:54;;;;;;;1.87;1.57;;;;;;;15.16;81.30;100733.69;5054839;28;20995;-72
2022/05/23 05:36:25;;;;;;;3.83;1.97;;;;;;;15.24;81.48;100727.38;5054801;28;20531;-72
2022/05/23 05:38:58;;;;;;;7.10;1.77;;;;;;;15.28;80.26;100722.88;5055237;28;20427;-71
2022/05/23 05:41:29;;;;;;;4.60;2.10;;;;;;;15.34;80.40;100710.63;5055172;28;20436;-71
2022/05/23 05:43:58;;;;;;;2.63;1.47;;;;;;;15.46;79.51;100712.66;5055122;28;20434;-71
2022/05/23 05:46:29;;;;;;;3.23;1.97;;;;;;;15.53;79.48;100714.84;5055013;28;20465;-71
2022/05/23 05:48:59;;;;;;;2.80;1.50;;;;;;;15.64;79.25;100708.69;5055052;28;20434;-71
2022/05/23 05:51:26;;;;;;;8.77;2.53;;;;;;;15.74;79.15;100710.22;5054938;28;20438;-72
2022/05/23 05:53:53;;;;;;;5.10;2.20;;;;;;;15.82;78.72;100708.56;5054810;28;20859;-72
2022/05/23 05:56:21;;;;;;;6.53;1.97;;;;;;;15.87;78.39;100703.72;5054775;28;20462;-71
2022/05/23 05:58:48;;;;;;;1.90;1.53;;;;;;;15.95;78.58;100714.91;5054858;28;20439;-71
2022/05/23 06:01:15;;;;;;;3.97;2.17;;;;;;;16.03;76.04;100703.91;5054753;28;20548;-71
2022/05/23 06:03:41;;;;;;;6.90;1.73;;;;;;;16.11;75.55;100697.56;5053879;28;20454;-71
2022/05/23 06:11:38;;;;;;;3.07;1.27;;;;;;;16.35;72.96;100676.91;5054401;28;20473;-72
2022/05/23 06:14:05;;;;;;;1.70;1.33;;;;;;;16.40;73.50;100680.22;5054438;28;20489;-75
2022/05/23 06:16:34;;;;;;;3.90;1.70;;;;;;;16.52;73.01;100676.72;5053982;28;20843;-72
2022/05/23 06:19:01;;;;;;;4.20;1.47;;;;;;;16.60;71.96;100666.81;5054240;28;20488;-71
2022/05/23 06:21:28;;;;;;;1.20;0.90;;;;;;;16.64;71.93;100660.34;5053840;28;20963;-73
2022/05/23 06:23:56;;;;;;;1.80;1.40;;;;;;;16.70;72.05;100663.66;5054338;28;20525;-72
2022/05/23 06:26:26;;;;;;;1.97;1.20;;;;;;;16.77;71.92;100663.09;5054006;28;20458;-73
2022/05/23 06:28:54;;;;;;;4.70;1.20;;;;;;;16.83;70.94;100651.63;5053930;28;20448;-73
2022/05/23 06:31:21;;;;;;;2.30;1.40;;;;;;;16.89;70.62;100647.50;5053834;28;20810;-73
2022/05/23 06:33:49;;;;;;;3.20;1.80;;;;;;;17.00;70.65;100639.66;5053972;28;20508;-73
2022/05/23 06:36:16;;;;;;;1.60;1.13;;;;;;;17.05;69.39;100641.34;5053446;28;20914;-73
2022/05/23 06:38:44;;;;;;;3.67;1.20;;;;;;;17.15;68.18;100649.09;5053745;28;20446;-72
2022/05/23 06:41:12;;;;;;;2.40;1.63;;;;;;;17.21;65.48;100647.69;5054069;28;20442;-73
2022/05/23 06:43:40;;;;;;;1.60;1.30;;;;;;;17.22;66.28;100643.03;5053915;28;20429;-73
2022/05/23 06:46:09;;;;;;;4.73;1.40;;;;;;;17.27;66.81;100640.88;5053814;28;20485;-73
2022/05/23 06:48:36;;;;;;;4.73;1.10;;;;;;;17.37;67.26;100639.59;5053763;28;20482;-73
2022/05/23 06:51:03;;;;;;;1.60;1.33;;;;;;;17.46;66.19;100642.19;5053815;28;20442;-72
2022/05/23 06:53:30;;;;;;;2.07;1.30;;;;;;;17.59;63.66;100641.03;5053663;28;20442;-73
2022/05/23 06:55:58;;;;;;;2.70;1.27;;;;;;;17.64;64.54;100638.03;5053648;28;20475;-73
2022/05/23 06:58:24;;;;;;;2.40;1.27;;;;;;;17.75;62.51;100633.72;5053672;28;20549;-74
2022/05/23 07:00:52;;;;;;;1.47;0.90;;;;;;;17.85;63.13;100638.69;5053588;28;20855;-73
2022/05/23 07:03:21;;;;;;;2.00;1.37;;;;;;;17.90;62.94;100635.69;5053541;28;20537;-74
2022/05/23 07:14:01;;;;;;;1.70;1.00;;;;;;;17.95;61.94;100614.66;5052711;28;20461;-70
2022/05/23 07:16:28;;;;;;;1.23;0.93;;;;;;;18.03;61.19;100616.44;5052960;28;20537;-71
2022/05/23 07:18:56;;;;;;;4.10;1.70;;;;;;;18.13;60.81;100616.72;5053377;28;20442;-72
2022/05/23 07:21:25;;;;;;;2.30;1.40;;;;;;;18.20;61.48;100613.38;5053285;28;20537;-73
2022/05/23 07:23:51;;;;;;;2.03;1.40;;;;;;;18.30;60.87;100612.06;5053308;28;20473;-73
2022/05/23 07:26:19;;;;;;;2.80;1.20;;;;;;;18.46;60.26;100604.66;5052872;28;20469;-73
2022/05/23 07:28:46;;;;;;;2.43;1.60;;;;;;;18.58;58.13;100609.22;5053613;28;20461;-76
2022/05/23 07:31:14;;;;;;;2.13;1.80;;;;;;;18.69;58.58;100607.59;5053611;28;20434;-74
2022/05/23 07:33:41;;;;;;;1.63;1.47;;;;;;;18.80;59.77;100610.56;5053122;28;20438;-74
2022/05/23 07:36:10;;;;;;;1.70;1.07;;;;;;;18.93;60.51;100605.78;5052963;28;20516;-75
2022/05/23 07:38:38;;;;;;;1.13;1.03;;;;;;;18.99;58.26;100599.69;5053435;28;20465;-75
2022/05/23 07:41:04;;;;;;;1.30;1.03;;;;;;;19.00;57.63;100601.25;5053334;28;20983;-76
2022/05/23 07:43:35;;;;;;;1.73;1.13;;;;;;;19.05;57.28;100595.50;5052955;28;20435;-77
2022/05/23 07:46:06;;;;;;;1.50;1.30;;;;;;;19.07;56.17;100586.88;5053040;28;20458;-76
2022/05/23 07:48:33;;;;;;;1.37;1.07;;;;;;;19.03;57.94;100578.56;5052828;28;20926;-76
2022/05/23 07:50:59;;;;;;;1.73;1.27;;;;;;;19.10;56.80;100569.69;5053185;28;20458;-76
2022/05/23 08:01:39;;;;;;;3.00;1.30;;;;;;;19.14;55.17;100581.56;5052776;28;20903;-76
2022/05/23 08:04:08;;;;;;;1.17;0.70;;;;;;;19.25;55.86;100581.78;5052974;28;20438;-77
2022/05/23 08:06:34;;;;;;;1.60;1.20;;;;;;;19.35;52.64;100581.22;5052788;28;20466;-76
2022/05/23 08:09:02;;;;;;;2.40;1.03;;;;;;;19.40;53.63;100589.97;5052721;28;20449;-76
2022/05/23 08:11:28;;;;;;;2.83;1.00;;;;;;;19.47;53.99;100578.31;5052882;28;20438;-76
2022/05/23 08:13:57;;;;;;;1.23;1.00;;;;;;;19.51;53.39;100575.66;5052912;28;20449;-76
2022/05/23 08:16:24;;;;;;;2.03;1.33;;;;;;;19.45;53.23;100569.66;5052921;28;21058;-77
2022/05/23 08:18:50;;;;;;;6.13;1.17;;;;;;;19.44;54.39;100567.28;5053062;28;20446;-76
2022/05/23 08:21:17;;;;;;;2.30;1.37;;;;;;;19.47;53.75;100561.03;5052811;28;20874;-75
2022/05/23 08:23:44;;;;;;;2.70;1.10;;;;;;;19.54;53.85;100555.69;5052953;28;20457;-76
2022/05/23 08:26:12;;;;;;;2.30;1.10;;;;;;;19.57;54.70;100554.97;5053524;28;20890;-76
2022/05/23 08:28:39;;;;;;;2.03;1.30;;;;;;;19.63;54.82;100550.81;5056518;28;20442;-76
2022/05/23 08:31:05;;;;;;;1.77;1.07;;;;;;;19.74;54.73;100553.75;5056111;28;20971;-75
2022/05/23 08:33:32;;;;;;;2.97;1.47;;;;;;;19.82;53.56;100553.53;5056262;28;20445;-76
2022/05/23 08:35:58;;;;;;;2.00;1.23;;;;;;;19.91;53.09;100554.06;5056022;28;20500;-76
2022/05/23 08:38:25;;;;;;;4.30;1.60;;;;;;;19.95;54.70;100565.16;5056598;28;20818;-75
2022/05/23 08:41:03;;;;;;;2.40;1.23;;;;;;;20.01;54.09;100557.38;5056386;28;20485;-76
2022/05/23 08:43:38;;;;;;;2.83;1.30;;;;;;;20.13;52.92;100554.47;5056219;28;20488;-76
2022/05/23 08:46:08;;;;;;;1.63;1.33;;;;;;;20.10;52.02;100556.00;5056201;28;20465;-76
2022/05/23 08:48:48;;;;;;;1.03;0.77;;;;;;;20.25;51.06;100539.75;5056161;28;20446;-74
2022/05/23 08:51:18;;;;;;;1.03;0.90;;;;;;;20.35;53.33;100550.91;5056052;28;20422;-76
2022/05/23 08:53:49;;;;;;;1.30;1.07;;;;;;;20.41;47.10;100549.44;5056051;28;20453;-76
2022/05/23 08:56:21;;;;;;;1.20;0.90;;;;;;;20.48;46.87;100548.78;5055730;28;20976;-76
2022/05/23 08:58:52;;;;;;;1.77;1.20;;;;;;;20.56;48.88;100535.94;5056093;28;20434;-77
2022/05/23 09:01:22;;;;;;;1.97;1.20;;;;;;;20.52;49.93;100543.34;5055999;28;20462;-77
2022/05/23 09:03:53;;;;;;;1.10;0.87;;;;;;;20.57;47.92;100524.56;5055876;28;20447;-76
2022/05/23 09:06:26;;;;;;;1.33;0.97;;;;;;;20.56;49.94;100530.44;5055715;28;20461;-76
2022/05/23 09:08:55;;;;;;;1.03;0.70;;;;;;;20.63;48.64;100519.53;5055595;28;20920;-77
2022/05/23 09:11:31;;;;;;;3.57;1.20;;;;;;;20.72;49.63;100528.31;5055787;28;20434;-76
2022/05/23 09:14:00;;;;;;;0.90;0.80;;;;;;;20.86;50.29;100519.47;5055692;28;20434;-76
2022/05/23 09:16:29;;;;;;;2.43;1.23;;;;;;;20.99;49.66;100515.31;5055797;28;20458;-76
2022/05/23 09:19:02;;;;;;;1.83;1.07;;;;;;;21.09;48.92;100517.41;5055588;28;20450;-76
2022/05/23 09:24:11;;;;;;;1.87;1.17;;;;;;;21.23;46.51;100507.75;5054187;28;20529;-76
2022/05/23 09:26:38;;;;;;;1.43;0.87;;;;;;;21.39;46.09;100509.16;5055768;28;20472;-76
2022/05/23 09:29:08;;;;;;;1.90;1.00;;;;;;;21.46;45.42;100500.16;5055306;28;20954;-76
2022/05/23 09:31:43;;;;;;;1.60;0.90;;;;;;;21.42;44.57;100502.88;5055635;28;20431;-76
2022/05/23 09:34:28;;;;;;;2.63;1.27;;;;;;;21.47;47.59;100495.44;5055616;28;20437;-77
2022/05/23 09:36:55;;;;;;;8.90;1.40;;;;;;;21.53;46.44;100493.94;5056104;28;20570;-76
2022/05/23 09:39:23;;;;;;;1.10;0.80;;;;;;;21.44;45.31;100493.47;5054545;28;20473;-76
2022/05/23 09:47:49;;;;;;;1.60;0.90;;;;;;;21.62;46.82;100484.19;5054821;28;21012;-76
2022/05/23 09:50:32;;;;;;;1.00;0.77;;;;;;;21.79;45.75;100477.28;5055053;28;20517;-76
2022/05/23 09:53:01;;;;;;;1.63;0.87;;;;;;;21.79;44.89;100480.03;5055050;28;20434;-76
2022/05/23 09:55:31;;;;;;;1.60;1.20;;;;;;;21.90;45.89;100472.63;5054808;28;20551;-76
2022/05/23 09:58:00;;;;;;;1.60;1.00;;;;;;;22.02;45.80;100468.00;5055211;28;20469;-76
2022/05/23 10:00:34;;;;;;;5.23;1.10;;;;;;;21.99;45.56;100460.50;5054818;28;20474;-76
2022/05/23 10:03:04;;;;;;;1.93;0.80;;;;;;;21.92;45.39;100462.03;5054805;28;20427;-76
2022/05/23 10:05:32;;;;;;;1.30;0.90;;;;;;;22.13;45.98;100458.69;5054553;28;20435;-76
2022/05/23 10:08:01;;;;;;;4.23;1.20;;;;;;;22.32;45.25;100459.59;5054664;28;20477;-77
2022/05/23 10:10:30;;;;;;;1.67;1.00;;;;;;;22.42;46.32;100458.88;5054588;28;20537;-76
2022/05/23 10:13:17;;;;;;;1.47;1.00;;;;;;;22.26;44.48;100450.88;5054606;28;20445;-77
2022/05/23 10:15:47;;;;;;;2.10;0.77;;;;;;;22.45;44.33;100446.28;5054342;28;20474;-76
2022/05/23 10:18:20;;;;;;;1.60;0.83;;;;;;;22.39;44.99;100441.09;5054435;28;20442;-76
2022/05/23 10:20:46;;;;;;;1.37;0.93;;;;;;;22.50;44.88;100443.16;5054645;28;20437;-76
2022/05/23 10:23:17;;;;;;;4.10;0.80;;;;;;;22.48;44.34;100437.22;5054549;28;20449;-77
2022/05/23 10:25:51;;;;;;;4.20;0.93;;;;;;;22.58;45.70;100436.50;5054588;28;20438;-76
2022/05/23 10:28:23;;;;;;;0.90;0.60;;;;;;;22.63;45.56;100425.09;5054464;28;20435;-76
2022/05/23 10:30:58;;;;;;;2.00;1.00;;;;;;;22.82;46.12;100422.00;5054373;28;20426;-77
2022/05/23 10:33:28;;;;;;;2.50;1.07;;;;;;;22.80;44.56;100420.78;5053930;28;20922;-76
2022/05/23 10:36:01;;;;;;;1.40;1.20;;;;;;;23.05;44.02;100412.63;5053759;28;20489;-75
2022/05/23 10:44:14;;;;;;;4.40;1.17;;;;;;;23.48;42.41;100410.75;5054097;28;20426;-76
2022/05/23 10:46:46;;;;;;;1.23;0.93;;;;;;;23.36;40.49;100400.06;5053895;28;20556;-76
2022/05/23 10:49:21;;;;;;;1.10;0.83;;;;;;;23.40;41.42;100400.88;5054246;28;20777;-76
2022/05/23 10:52:00;;;;;;;2.17;1.10;;;;;;;23.49;41.44;100397.72;5055735;28;20470;-77
2022/05/23 10:54:41;;;;;;;0.80;0.53;;;;;;;23.54;42.16;100395.34;5054344;28;20430;-77
2022/05/23 10:57:22;;;;;;;1.43;0.73;;;;;;;23.70;42.59;100389.47;5053669;28;20466;-76
2022/05/23 10:59:53;;;;;;;1.83;1.10;;;;;;;23.72;42.68;100387.09;5053780;28;20461;-74
2022/05/23 11:02:33;;;;;;;2.20;0.60;;;;;;;23.73;40.39;100390.66;5053767;28;20437;-76
2022/05/23 11:05:17;;;;;;;1.23;0.83;;;;;;;23.91;41.01;100385.91;5053656;28;20423;-76
2022/05/23 11:07:50;;;;;;;1.60;1.00;;;;;;;24.12;41.89;100391.41;5053583;28;20454;-75
2022/05/23 11:10:25;;;;;;;3.03;1.17;;;;;;;24.12;39.05;100374.00;5053674;28;20422;-74
2022/05/23 11:13:10;;;;;;;1.63;0.70;;;;;;;24.07;40.55;100379.94;5053668;28;20512;-75
2022/05/23 11:15:49;;;;;;;2.30;0.90;;;;;;;24.09;40.26;100370.06;5053507;28;20473;-76
2022/05/23 11:18:32;;;;;;;1.70;1.00;;;;;;;24.22;39.80;100361.34;5053636;28;20442;-76
2022/05/23 11:21:05;;;;;;;1.90;1.30;;;;;;;24.36;40.78;100356.56;5053437;28;20434;-75
2022/05/23 11:23:39;;;;;;;3.17;1.07;;;;;;;24.65;40.76;100356.47;5053464;28;20471;-76
2022/05/23 11:26:13;;;;;;;4.10;0.93;;;;;;;24.76;39.69;100359.97;5053452;28;20480;-76
2022/05/23 11:34:25;;;;;;;1.47;0.87;;;;;;;24.98;40.25;100340.47;5052935;28;20915;-77
2022/05/23 11:37:01;;;;;;;1.80;1.10;;;;;;;25.00;39.29;100340.84;5052901;28;20874;-77
2022/05/23 11:39:48;;;;;;;1.57;0.80;;;;;;;25.11;39.64;100338.84;5053474;28;20495;-76
2022/05/23 11:42:16;;;;;;;1.60;1.10;;;;;;;25.25;38.29;100335.19;5053196;28;20437;-77
2022/05/23 11:44:57;;;;;;;1.30;1.00;;;;;;;25.25;37.51;100327.63;5053398;28;20438;-77
2022/05/23 11:47:25;;;;;;;1.20;0.80;;;;;;;25.23;38.09;100321.69;5053193;28;20458;-76
2022/05/23 11:50:14;;;;;;;1.73;0.90;;;;;;;25.41;38.48;100314.06;5053222;28;20438;-76
2022/05/23 11:52:43;;;;;;;1.07;0.80;;;;;;;25.54;38.84;100316.31;5052857;28;20940;-76
2022/05/23 11:55:12;;;;;;;1.60;1.10;;;;;;;25.74;38.47;100306.22;5053005;28;20485;-76
2022/05/23 11:57:40;;;;;;;1.00;0.70;;;;;;;25.97;39.28;100315.94;5053008;28;20536;-76
2022/05/23 12:00:24;;;;;;;1.87;1.00;;;;;;;25.97;37.05;100302.03;5053204;28;20815;-77
2022/05/23 12:03:12;;;;;;;1.87;1.00;;;;;;;26.60;38.02;100297.72;5048252;28;20442;-74
2022/05/23 12:05:41;;;;;;;2.00;0.77;;;;;;;27.19;37.43;100304.06;5057031;28;20430;-76
2022/05/23 12:08:32;;;;;;;1.00;0.80;;;;;;;27.69;35.49;100295.66;5057134;28;20446;-76
2022/05/23 12:11:02;;;;;;;1.60;1.07;;;;;;;28.04;35.10;100294.22;5057132;28;20658;-76
2022/05/23 12:13:51;;;;;;;8.73;1.27;;;;;;;27.71;34.28;100284.84;5057283;28;20435;-77
2022/05/23 12:16:46;;;;;;;0.93;0.67;;;;;;;27.37;36.08;100288.66;5056796;28;20500;-76
2022/05/23 12:19:37;;;;;;;1.60;0.93;;;;;;;27.31;33.76;100281.97;5057974;28;20526;-73
2022/05/23 12:22:22;;;;;;;1.10;0.80;;;;;;;27.85;34.38;100251.22;5056704;28;20430;-75
2022/05/23 12:25:25;;;;;;;1.10;0.90;;;;;;;28.07;34.28;100273.09;5057286;28;20445;-76
2022/05/23 12:28:15;;;;;;;0.80;0.60;;;;;;;28.34;34.82;100281.28;5057007;28;20984;-76
2022/05/23 12:31:04;;;;;;;1.07;0.73;;;;;;;28.57;33.18;100274.84;5057406;28;20426;-76
2022/05/23 12:33:32;;;;;;;1.10;0.60;;;;;;;28.36;34.38;100262.94;5057246;28;20422;-75
2022/05/23 12:36:06;;;;;;;5.10;0.93;;;;;;;27.89;34.69;100274.22;5055596;28;20882;-74
2022/05/23 12:39:13;;;;;;;0.87;0.60;;;;;;;27.30;33.71;100254.59;5055723;28;20476;-75
2022/05/23 12:41:54;;;;;;;1.87;0.60;;;;;;;26.89;34.59;100261.19;5037689;28;20449;-78
2022/05/23 12:44:54;;;;;;;0.73;0.70;;;;;;;27.12;34.62;100250.13;5057061;28;20915;-74